sensor_id;sensor_type;location;lat;lon;timestamp;temperature;humidity
46766;DHT22;32527;51.986;5.842;2023-01-29T00:00:16;1.60;99.90
46766;DHT22;32527;51.986;5.842;2023-01-29T00:02:42;1.80;99.90
46766;DHT22;32527;51.986;5.842;2023-01-29T00:07:34;1.60;99.90
46766;DHT22;32527;51.986;5.842;2023-01-29T00:09:59;1.90;99.90
46766;DHT22;32527;51.986;5.842;2023-01-29T00:19:43;1.50;99.90
46766;DHT22;32527;51.986;5.842;2023-01-29T00:22:08;1.50;99.90
46766;DHT22;32527;51.986;5.842;2023-01-29T00:24:34;1.40;99.90
46766;DHT22;32527;51.986;5.842;2023-01-29T00:27:00;1.80;99.90
46766;DHT22;32527;51.986;5.842;2023-01-29T00:31:52;1.80;99.90
46766;DHT22;32527;51.986;5.842;2023-01-29T00:39:11;1.30;99.90
46766;DHT22;32527;51.986;5.842;2023-01-29T00:44:22;2.00;99.90
46766;DHT22;32527;51.986;5.842;2023-01-29T00:47:06;1.70;99.90
46766;DHT22;32527;51.986;5.842;2023-01-29T00:50:06;1.70;99.90
46766;DHT22;32527;51.986;5.842;2023-01-29T00:52:32;1.50;99.90
46766;DHT22;32527;51.986;5.842;2023-01-29T00:57:28;1.60;99.90
46766;DHT22;32527;51.986;5.842;2023-01-29T01:02:21;1.70;99.90
46766;DHT22;32527;51.986;5.842;2023-01-29T01:05:06;1.60;99.90
46766;DHT22;32527;51.986;5.842;2023-01-29T01:07:32;1.10;99.90
46766;DHT22;32527;51.986;5.842;2023-01-29T01:09:58;1.50;99.90
46766;DHT22;32527;51.986;5.842;2023-01-29T01:20:03;1.50;99.90
46766;DHT22;32527;51.986;5.842;2023-01-29T01:22:29;1.50;99.90
46766;DHT22;32527;51.986;5.842;2023-01-29T01:24:56;1.60;99.90
46766;DHT22;32527;51.986;5.842;2023-01-29T01:27:22;1.20;99.90
46766;DHT22;32527;51.986;5.842;2023-01-29T01:34:40;1.70;99.90
46766;DHT22;32527;51.986;5.842;2023-01-29T01:44:53;1.10;99.90
46766;DHT22;32527;51.986;5.842;2023-01-29T01:47:41;1.50;99.90
46766;DHT22;32527;51.986;5.842;2023-01-29T01:50:59;1.40;99.90
46766;DHT22;32527;51.986;5.842;2023-01-29T01:53:06;1.50;99.90
46766;DHT22;32527;51.986;5.842;2023-01-29T01:55:34;1.40;99.90
46766;DHT22;32527;51.986;5.842;2023-01-29T01:58:10;1.50;99.90
46766;DHT22;32527;51.986;5.842;2023-01-29T02:00:38;1.40;99.90
46766;DHT22;32527;51.986;5.842;2023-01-29T02:03:04;1.40;99.90
46766;DHT22;32527;51.986;5.842;2023-01-29T02:05:52;1.10;99.90
46766;DHT22;32527;51.986;5.842;2023-01-29T02:08:57;1.60;99.90
46766;DHT22;32527;51.986;5.842;2023-01-29T02:11:44;1.40;99.90
46766;DHT22;32527;51.986;5.842;2023-01-29T02:16:37;1.60;99.90
46766;DHT22;32527;51.986;5.842;2023-01-29T02:19:06;1.60;99.90
46766;DHT22;32527;51.986;5.842;2023-01-29T02:24:36;1.30;99.90
46766;DHT22;32527;51.986;5.842;2023-01-29T02:27:12;1.60;99.90
46766;DHT22;32527;51.986;5.842;2023-01-29T02:30:01;1.00;99.90
46766;DHT22;32527;51.986;5.842;2023-01-29T02:32:40;1.10;99.90
46766;DHT22;32527;51.986;5.842;2023-01-29T02:35:31;1.20;99.90
46766;DHT22;32527;51.986;5.842;2023-01-29T02:38:16;1.30;99.90
46766;DHT22;32527;51.986;5.842;2023-01-29T02:41:04;1.30;99.90
46766;DHT22;32527;51.986;5.842;2023-01-29T02:46:29;1.10;99.90
46766;DHT22;32527;51.986;5.842;2023-01-29T02:49:21;1.30;99.90
46766;DHT22;32527;51.986;5.842;2023-01-29T02:52:02;1.50;99.90
46766;DHT22;32527;51.986;5.842;2023-01-29T02:57:04;1.20;99.90
46766;DHT22;32527;51.986;5.842;2023-01-29T02:59:38;1.10;99.90
46766;DHT22;32527;51.986;5.842;2023-01-29T03:02:12;1.40;99.90
46766;DHT22;32527;51.986;5.842;2023-01-29T03:04:44;1.20;99.90
46766;DHT22;32527;51.986;5.842;2023-01-29T03:07:18;1.10;99.90
46766;DHT22;32527;51.986;5.842;2023-01-29T03:10:27;1.50;99.90
46766;DHT22;32527;51.986;5.842;2023-01-29T03:13:25;1.00;99.90
46766;DHT22;32527;51.986;5.842;2023-01-29T03:16:00;1.40;99.90
46766;DHT22;32527;51.986;5.842;2023-01-29T03:18:40;1.10;99.90
46766;DHT22;32527;51.986;5.842;2023-01-29T03:21:22;0.90;99.90
46766;DHT22;32527;51.986;5.842;2023-01-29T03:24:11;1.20;99.90
46766;DHT22;32527;51.986;5.842;2023-01-29T03:26:59;1.20;99.90
46766;DHT22;32527;51.986;5.842;2023-01-29T03:29:46;1.20;99.90
46766;DHT22;32527;51.986;5.842;2023-01-29T03:32:48;1.00;99.90
46766;DHT22;32527;51.986;5.842;2023-01-29T03:35:20;1.30;99.90
46766;DHT22;32527;51.986;5.842;2023-01-29T03:37:58;1.50;99.90
46766;DHT22;32527;51.986;5.842;2023-01-29T03:40:27;1.00;99.90
46766;DHT22;32527;51.986;5.842;2023-01-29T03:45:24;1.30;99.90
46766;DHT22;32527;51.986;5.842;2023-01-29T03:48:08;1.20;99.90
46766;DHT22;32527;51.986;5.842;2023-01-29T03:53:41;1.70;99.90
46766;DHT22;32527;51.986;5.842;2023-01-29T04:02:29;1.20;99.90
46766;DHT22;32527;51.986;5.842;2023-01-29T04:05:05;1.30;99.90
46766;DHT22;32527;51.986;5.842;2023-01-29T04:07:44;1.20;99.90
46766;DHT22;32527;51.986;5.842;2023-01-29T04:10:18;1.30;99.90
46766;DHT22;32527;51.986;5.842;2023-01-29T04:12:50;1.30;99.90
46766;DHT22;32527;51.986;5.842;2023-01-29T04:17:52;1.20;99.90
46766;DHT22;32527;51.986;5.842;2023-01-29T04:22:54;1.50;99.90
46766;DHT22;32527;51.986;5.842;2023-01-29T04:25:30;1.20;99.90
46766;DHT22;32527;51.986;5.842;2023-01-29T04:31:01;1.40;99.90
46766;DHT22;32527;51.986;5.842;2023-01-29T04:34:22;1.30;99.90
46766;DHT22;32527;51.986;5.842;2023-01-29T04:37:11;1.30;99.90
46766;DHT22;32527;51.986;5.842;2023-01-29T04:48:23;1.30;99.90
46766;DHT22;32527;51.986;5.842;2023-01-29T04:53:43;1.40;99.90
46766;DHT22;32527;51.986;5.842;2023-01-29T04:56:21;1.40;99.90
46766;DHT22;32527;51.986;5.842;2023-01-29T04:58:58;1.30;99.90
46766;DHT22;32527;51.986;5.842;2023-01-29T05:01:27;1.30;99.90
46766;DHT22;32527;51.986;5.842;2023-01-29T05:06:22;1.30;99.90
46766;DHT22;32527;51.986;5.842;2023-01-29T05:08:50;1.30;99.90
46766;DHT22;32527;51.986;5.842;2023-01-29T05:11:17;2.30;99.90
46766;DHT22;32527;51.986;5.842;2023-01-29T05:16:18;2.10;99.90
46766;DHT22;32527;51.986;5.842;2023-01-29T05:21:11;1.30;99.90
46766;DHT22;32527;51.986;5.842;2023-01-29T05:26:04;1.30;99.90
46766;DHT22;32527;51.986;5.842;2023-01-29T05:33:28;1.50;99.90
46766;DHT22;32527;51.986;5.842;2023-01-29T05:35:55;1.50;99.90
46766;DHT22;32527;51.986;5.842;2023-01-29T05:38:22;1.50;99.90
46766;DHT22;32527;51.986;5.842;2023-01-29T05:43:22;1.70;99.90
46766;DHT22;32527;51.986;5.842;2023-01-29T05:45:53;1.60;99.90
46766;DHT22;32527;51.986;5.842;2023-01-29T05:53:11;1.20;99.90
46766;DHT22;32527;51.986;5.842;2023-01-29T06:10:15;1.50;99.90
46766;DHT22;32527;51.986;5.842;2023-01-29T06:12:42;1.60;99.90
46766;DHT22;32527;51.986;5.842;2023-01-29T06:15:09;1.60;99.90
46766;DHT22;32527;51.986;5.842;2023-01-29T06:17:35;1.40;99.90
46766;DHT22;32527;51.986;5.842;2023-01-29T06:20:01;1.30;99.90
46766;DHT22;32527;51.986;5.842;2023-01-29T06:27:19;1.20;99.90
46766;DHT22;32527;51.986;5.842;2023-01-29T06:32:10;1.60;99.90
46766;DHT22;32527;51.986;5.842;2023-01-29T06:46:50;1.40;99.90
46766;DHT22;32527;51.986;5.842;2023-01-29T06:49:16;1.70;99.90
46766;DHT22;32527;51.986;5.842;2023-01-29T06:51:41;1.90;99.90
46766;DHT22;32527;51.986;5.842;2023-01-29T06:54:08;1.50;99.90
46766;DHT22;32527;51.986;5.842;2023-01-29T07:16:04;1.70;99.90
46766;DHT22;32527;51.986;5.842;2023-01-29T07:18:31;1.90;99.90
46766;DHT22;32527;51.986;5.842;2023-01-29T07:20:57;2.00;99.90
46766;DHT22;32527;51.986;5.842;2023-01-29T07:23:23;2.00;99.90
46766;DHT22;32527;51.986;5.842;2023-01-29T07:25:49;1.80;99.90
46766;DHT22;32527;51.986;5.842;2023-01-29T07:28:19;1.70;99.90
46766;DHT22;32527;51.986;5.842;2023-01-29T07:35:42;1.70;99.90
46766;DHT22;32527;51.986;5.842;2023-01-29T07:38:09;1.80;99.90
46766;DHT22;32527;51.986;5.842;2023-01-29T07:40:35;2.10;99.90
46766;DHT22;32527;51.986;5.842;2023-01-29T07:43:03;1.80;99.90
46766;DHT22;32527;51.986;5.842;2023-01-29T07:45:34;2.60;99.90
46766;DHT22;32527;51.986;5.842;2023-01-29T07:57:57;1.80;99.90
46766;DHT22;32527;51.986;5.842;2023-01-29T08:02:51;2.00;99.90
46766;DHT22;32527;51.986;5.842;2023-01-29T08:07:43;2.40;99.90
46766;DHT22;32527;51.986;5.842;2023-01-29T08:10:09;1.90;99.90
46766;DHT22;32527;51.986;5.842;2023-01-29T08:12:37;2.10;99.90
46766;DHT22;32527;51.986;5.842;2023-01-29T08:32:09;2.20;99.90
46766;DHT22;32527;51.986;5.842;2023-01-29T08:49:12;2.30;99.90
46766;DHT22;32527;51.986;5.842;2023-01-29T08:56:30;2.30;99.90
46766;DHT22;32527;51.986;5.842;2023-01-29T08:58:55;2.60;99.90
46766;DHT22;32527;51.986;5.842;2023-01-29T09:01:21;2.60;99.90
46766;DHT22;32527;51.986;5.842;2023-01-29T09:03:47;2.60;99.90
46766;DHT22;32527;51.986;5.842;2023-01-29T09:06:13;2.70;99.90
46766;DHT22;32527;51.986;5.842;2023-01-29T09:08:40;2.60;99.90
46766;DHT22;32527;51.986;5.842;2023-01-29T09:11:16;2.40;99.90
46766;DHT22;32527;51.986;5.842;2023-01-29T09:13:42;2.40;99.90
46766;DHT22;32527;51.986;5.842;2023-01-29T09:21:04;2.70;99.90
46766;DHT22;32527;51.986;5.842;2023-01-29T09:23:31;3.10;99.90
46766;DHT22;32527;51.986;5.842;2023-01-29T09:28:25;2.90;99.90
46766;DHT22;32527;51.986;5.842;2023-01-29T09:38:12;2.80;99.90
46766;DHT22;32527;51.986;5.842;2023-01-29T09:41:05;2.60;99.90
46766;DHT22;32527;51.986;5.842;2023-01-29T09:43:57;2.90;99.90
46766;DHT22;32527;51.986;5.842;2023-01-29T09:46:37;2.80;99.90
46766;DHT22;32527;51.986;5.842;2023-01-29T09:49:24;2.90;99.90
46766;DHT22;32527;51.986;5.842;2023-01-29T09:52:18;3.00;99.90
46766;DHT22;32527;51.986;5.842;2023-01-29T09:57:29;2.60;99.90
46766;DHT22;32527;51.986;5.842;2023-01-29T09:59:58;2.90;99.90
46766;DHT22;32527;51.986;5.842;2023-01-29T10:11:31;3.40;99.90
46766;DHT22;32527;51.986;5.842;2023-01-29T10:14:12;3.30;99.90
46766;DHT22;32527;51.986;5.842;2023-01-29T10:16:46;3.00;99.90
46766;DHT22;32527;51.986;5.842;2023-01-29T10:19:25;2.90;99.90
46766;DHT22;32527;51.986;5.842;2023-01-29T10:24:30;3.30;99.90
46766;DHT22;32527;51.986;5.842;2023-01-29T10:27:00;3.20;99.90
46766;DHT22;32527;51.986;5.842;2023-01-29T10:29:27;3.10;99.90
46766;DHT22;32527;51.986;5.842;2023-01-29T10:31:57;3.20;99.90
46766;DHT22;32527;51.986;5.842;2023-01-29T10:34:51;3.20;99.90
46766;DHT22;32527;51.986;5.842;2023-01-29T10:37:25;3.20;99.90
46766;DHT22;32527;51.986;5.842;2023-01-29T10:42:42;3.10;99.90
46766;DHT22;32527;51.986;5.842;2023-01-29T10:57:26;3.40;99.90
46766;DHT22;32527;51.986;5.842;2023-01-29T11:00:07;3.60;99.90
46766;DHT22;32527;51.986;5.842;2023-01-29T11:02:45;3.40;99.90
46766;DHT22;32527;51.986;5.842;2023-01-29T11:05:29;3.30;99.90
46766;DHT22;32527;51.986;5.842;2023-01-29T11:08:09;3.20;99.90
46766;DHT22;32527;51.986;5.842;2023-01-29T11:10:40;3.50;99.90
46766;DHT22;32527;51.986;5.842;2023-01-29T11:13:13;3.50;99.90
46766;DHT22;32527;51.986;5.842;2023-01-29T11:18:09;3.70;99.90
46766;DHT22;32527;51.986;5.842;2023-01-29T11:20:39;3.60;99.90
46766;DHT22;32527;51.986;5.842;2023-01-29T11:23:05;3.70;99.90
46766;DHT22;32527;51.986;5.842;2023-01-29T11:28:01;3.60;99.90
46766;DHT22;32527;51.986;5.842;2023-01-29T11:30:41;3.70;99.90
46766;DHT22;32527;51.986;5.842;2023-01-29T11:35:44;3.80;99.90
46766;DHT22;32527;51.986;5.842;2023-01-29T11:38:25;3.70;99.90
46766;DHT22;32527;51.986;5.842;2023-01-29T11:43:27;3.50;99.90
46766;DHT22;32527;51.986;5.842;2023-01-29T11:46:01;3.90;99.90
46766;DHT22;32527;51.986;5.842;2023-01-29T11:48:43;3.60;99.90
46766;DHT22;32527;51.986;5.842;2023-01-29T11:51:21;3.80;99.90
46766;DHT22;32527;51.986;5.842;2023-01-29T11:54:15;3.60;99.90
46766;DHT22;32527;51.986;5.842;2023-01-29T11:56:43;3.70;99.90
46766;DHT22;32527;51.986;5.842;2023-01-29T11:59:39;3.70;99.90
46766;DHT22;32527;51.986;5.842;2023-01-29T12:02:26;4.10;99.90
46766;DHT22;32527;51.986;5.842;2023-01-29T12:04:58;3.80;99.90
46766;DHT22;32527;51.986;5.842;2023-01-29T12:07:24;3.70;99.90
46766;DHT22;32527;51.986;5.842;2023-01-29T12:09:53;3.80;99.90
46766;DHT22;32527;51.986;5.842;2023-01-29T12:12:28;3.50;99.90
46766;DHT22;32527;51.986;5.842;2023-01-29T12:17:37;3.90;99.90
46766;DHT22;32527;51.986;5.842;2023-01-29T12:20:11;3.90;99.90
46766;DHT22;32527;51.986;5.842;2023-01-29T12:25:35;3.70;99.90
46766;DHT22;32527;51.986;5.842;2023-01-29T12:28:21;3.90;99.90
46766;DHT22;32527;51.986;5.842;2023-01-29T12:33:52;3.60;99.90
46766;DHT22;32527;51.986;5.842;2023-01-29T12:36:37;4.20;99.90
46766;DHT22;32527;51.986;5.842;2023-01-29T12:39:10;3.70;99.90
46766;DHT22;32527;51.986;5.842;2023-01-29T12:41:52;4.00;99.90
46766;DHT22;32527;51.986;5.842;2023-01-29T12:44:43;3.90;99.90
46766;DHT22;32527;51.986;5.842;2023-01-29T12:47:31;4.10;99.90
46766;DHT22;32527;51.986;5.842;2023-01-29T12:50:05;3.60;99.90
46766;DHT22;32527;51.986;5.842;2023-01-29T12:52:49;3.90;99.90
46766;DHT22;32527;51.986;5.842;2023-01-29T12:55:21;3.90;99.90
46766;DHT22;32527;51.986;5.842;2023-01-29T12:58:49;3.60;99.90
46766;DHT22;32527;51.986;5.842;2023-01-29T13:01:35;3.90;99.90
46766;DHT22;32527;51.986;5.842;2023-01-29T13:04:12;3.90;99.90
46766;DHT22;32527;51.986;5.842;2023-01-29T13:06:42;4.00;99.90
46766;DHT22;32527;51.986;5.842;2023-01-29T13:09:45;3.60;99.90
46766;DHT22;32527;51.986;5.842;2023-01-29T13:12:25;4.20;99.90
46766;DHT22;32527;51.986;5.842;2023-01-29T13:14:55;4.00;99.90
46766;DHT22;32527;51.986;5.842;2023-01-29T13:17:46;3.60;99.90
46766;DHT22;32527;51.986;5.842;2023-01-29T13:22:41;4.20;99.90
46766;DHT22;32527;51.986;5.842;2023-01-29T13:25:14;3.80;99.90
46766;DHT22;32527;51.986;5.842;2023-01-29T13:27:42;3.90;99.90
46766;DHT22;32527;51.986;5.842;2023-01-29T13:30:24;4.10;99.90
46766;DHT22;32527;51.986;5.842;2023-01-29T13:32:54;4.00;99.90
46766;DHT22;32527;51.986;5.842;2023-01-29T13:35:38;3.70;99.90
46766;DHT22;32527;51.986;5.842;2023-01-29T13:38:04;4.00;99.90
46766;DHT22;32527;51.986;5.842;2023-01-29T13:40:37;3.80;99.90
46766;DHT22;32527;51.986;5.842;2023-01-29T13:45:42;3.50;99.90
46766;DHT22;32527;51.986;5.842;2023-01-29T13:50:44;3.80;99.90
46766;DHT22;32527;51.986;5.842;2023-01-29T13:53:25;3.50;99.90
46766;DHT22;32527;51.986;5.842;2023-01-29T14:05:59;4.20;99.90
46766;DHT22;32527;51.986;5.842;2023-01-29T14:08:45;4.20;99.90
46766;DHT22;32527;51.986;5.842;2023-01-29T14:13:47;4.00;99.90
46766;DHT22;32527;51.986;5.842;2023-01-29T14:18:54;4.00;99.90
46766;DHT22;32527;51.986;5.842;2023-01-29T14:21:27;4.10;99.90
46766;DHT22;32527;51.986;5.842;2023-01-29T14:24:18;4.00;99.90
46766;DHT22;32527;51.986;5.842;2023-01-29T14:26:48;4.50;99.90
46766;DHT22;32527;51.986;5.842;2023-01-29T14:29:27;3.90;99.90
46766;DHT22;32527;51.986;5.842;2023-01-29T14:31:59;3.70;99.90
46766;DHT22;32527;51.986;5.842;2023-01-29T14:34:43;4.20;99.90
46766;DHT22;32527;51.986;5.842;2023-01-29T14:37:25;4.00;99.90
46766;DHT22;32527;51.986;5.842;2023-01-29T14:45:31;4.20;99.90
46766;DHT22;32527;51.986;5.842;2023-01-29T14:50:52;4.00;99.90
46766;DHT22;32527;51.986;5.842;2023-01-29T14:56:31;3.90;99.90
46766;DHT22;32527;51.986;5.842;2023-01-29T15:02:03;4.40;99.90
46766;DHT22;32527;51.986;5.842;2023-01-29T15:04:46;3.50;99.90
46766;DHT22;32527;51.986;5.842;2023-01-29T15:13:56;3.90;99.90
46766;DHT22;32527;51.986;5.842;2023-01-29T15:16:31;3.40;99.90
46766;DHT22;32527;51.986;5.842;2023-01-29T15:19:35;3.60;99.90
46766;DHT22;32527;51.986;5.842;2023-01-29T15:24:43;3.90;99.90
46766;DHT22;32527;51.986;5.842;2023-01-29T15:27:19;3.90;99.90
46766;DHT22;32527;51.986;5.842;2023-01-29T15:29:55;3.70;99.90
46766;DHT22;32527;51.986;5.842;2023-01-29T15:32:43;3.50;99.90
46766;DHT22;32527;51.986;5.842;2023-01-29T15:35:33;3.50;99.90
46766;DHT22;32527;51.986;5.842;2023-01-29T15:38:24;3.80;99.90
46766;DHT22;32527;51.986;5.842;2023-01-29T15:41:15;4.00;99.90
46766;DHT22;32527;51.986;5.842;2023-01-29T15:43:56;3.80;99.90
46766;DHT22;32527;51.986;5.842;2023-01-29T15:46:35;3.50;99.90
46766;DHT22;32527;51.986;5.842;2023-01-29T15:49:08;3.90;99.90
46766;DHT22;32527;51.986;5.842;2023-01-29T15:54:12;4.10;99.90
46766;DHT22;32527;51.986;5.842;2023-01-29T15:56:43;3.60;99.90
46766;DHT22;32527;51.986;5.842;2023-01-29T15:59:46;3.80;99.90
46766;DHT22;32527;51.986;5.842;2023-01-29T16:02:35;3.70;99.90
46766;DHT22;32527;51.986;5.842;2023-01-29T16:05:16;4.10;99.90
46766;DHT22;32527;51.986;5.842;2023-01-29T16:07:43;3.90;99.90
46766;DHT22;32527;51.986;5.842;2023-01-29T16:10:23;3.50;99.90
46766;DHT22;32527;51.986;5.842;2023-01-29T16:12:51;3.50;99.90
46766;DHT22;32527;51.986;5.842;2023-01-29T16:15:37;4.00;99.90
46766;DHT22;32527;51.986;5.842;2023-01-29T16:18:20;3.70;99.90
46766;DHT22;32527;51.986;5.842;2023-01-29T16:20:50;3.80;99.90
46766;DHT22;32527;51.986;5.842;2023-01-29T16:23:28;3.80;99.90
46766;DHT22;32527;51.986;5.842;2023-01-29T16:26:01;3.80;99.90
46766;DHT22;32527;51.986;5.842;2023-01-29T16:28:27;3.80;99.90
46766;DHT22;32527;51.986;5.842;2023-01-29T16:30:57;3.80;99.90
46766;DHT22;32527;51.986;5.842;2023-01-29T16:33:33;3.80;99.90
46766;DHT22;32527;51.986;5.842;2023-01-29T16:36:01;4.00;99.90
46766;DHT22;32527;51.986;5.842;2023-01-29T16:38:32;3.80;99.90
46766;DHT22;32527;51.986;5.842;2023-01-29T16:43:48;3.60;99.90
46766;DHT22;32527;51.986;5.842;2023-01-29T16:48:47;3.60;99.90
46766;DHT22;32527;51.986;5.842;2023-01-29T16:51:35;3.40;99.90
46766;DHT22;32527;51.986;5.842;2023-01-29T16:54:07;3.00;99.90
46766;DHT22;32527;51.986;5.842;2023-01-29T16:56:36;3.10;99.90
46766;DHT22;32527;51.986;5.842;2023-01-29T16:59:04;3.90;99.90
46766;DHT22;32527;51.986;5.842;2023-01-29T17:01:31;3.10;99.90
46766;DHT22;32527;51.986;5.842;2023-01-29T17:04:05;3.30;99.90
46766;DHT22;32527;51.986;5.842;2023-01-29T17:06:33;3.50;99.90
46766;DHT22;32527;51.986;5.842;2023-01-29T17:08:59;3.30;99.90
46766;DHT22;32527;51.986;5.842;2023-01-29T17:13:54;3.20;99.90
46766;DHT22;32527;51.986;5.842;2023-01-29T17:16:26;3.20;99.90
46766;DHT22;32527;51.986;5.842;2023-01-29T17:18:52;2.80;99.90
46766;DHT22;32527;51.986;5.842;2023-01-29T17:21:18;3.00;99.90
46766;DHT22;32527;51.986;5.842;2023-01-29T17:23:43;3.40;99.90
46766;DHT22;32527;51.986;5.842;2023-01-29T17:26:11;3.40;99.90
46766;DHT22;32527;51.986;5.842;2023-01-29T17:28:38;3.10;99.90
46766;DHT22;32527;51.986;5.842;2023-01-29T17:31:04;3.10;99.90
46766;DHT22;32527;51.986;5.842;2023-01-29T17:33:31;3.50;99.90
46766;DHT22;32527;51.986;5.842;2023-01-29T17:35:57;3.30;99.90
46766;DHT22;32527;51.986;5.842;2023-01-29T17:38:23;3.50;99.90
46766;DHT22;32527;51.986;5.842;2023-01-29T17:40:59;3.20;99.90
46766;DHT22;32527;51.986;5.842;2023-01-29T17:43:25;3.30;99.90
46766;DHT22;32527;51.986;5.842;2023-01-29T17:45:51;3.40;99.90
46766;DHT22;32527;51.986;5.842;2023-01-29T17:48:23;3.40;99.90
46766;DHT22;32527;51.986;5.842;2023-01-29T17:50:54;3.20;99.90
46766;DHT22;32527;51.986;5.842;2023-01-29T17:53:21;3.10;99.90
46766;DHT22;32527;51.986;5.842;2023-01-29T17:55:48;3.00;99.90
46766;DHT22;32527;51.986;5.842;2023-01-29T17:58:22;3.20;99.90
46766;DHT22;32527;51.986;5.842;2023-01-29T18:00:48;3.30;99.90
46766;DHT22;32527;51.986;5.842;2023-01-29T18:03:14;3.10;99.90
46766;DHT22;32527;51.986;5.842;2023-01-29T18:05:41;4.10;99.90
46766;DHT22;32527;51.986;5.842;2023-01-29T18:08:19;2.90;99.90
46766;DHT22;32527;51.986;5.842;2023-01-29T18:10:46;3.30;99.90
46766;DHT22;32527;51.986;5.842;2023-01-29T18:13:12;3.50;99.90
46766;DHT22;32527;51.986;5.842;2023-01-29T18:15:38;3.50;99.90
46766;DHT22;32527;51.986;5.842;2023-01-29T18:18:04;3.50;99.90
46766;DHT22;32527;51.986;5.842;2023-01-29T18:20:31;3.10;99.90
46766;DHT22;32527;51.986;5.842;2023-01-29T18:22:57;4.10;99.90
46766;DHT22;32527;51.986;5.842;2023-01-29T18:25:22;3.50;99.90
46766;DHT22;32527;51.986;5.842;2023-01-29T18:27:48;3.60;99.90
46766;DHT22;32527;51.986;5.842;2023-01-29T18:30:14;3.30;99.90
46766;DHT22;32527;51.986;5.842;2023-01-29T18:32:40;3.60;99.90
46766;DHT22;32527;51.986;5.842;2023-01-29T18:35:06;3.20;99.90
46766;DHT22;32527;51.986;5.842;2023-01-29T18:37:32;3.50;99.90
46766;DHT22;32527;51.986;5.842;2023-01-29T18:39:58;3.50;99.90
46766;DHT22;32527;51.986;5.842;2023-01-29T18:42:24;3.30;99.90
46766;DHT22;32527;51.986;5.842;2023-01-29T18:44:50;3.30;99.90
46766;DHT22;32527;51.986;5.842;2023-01-29T18:47:16;3.70;99.90
46766;DHT22;32527;51.986;5.842;2023-01-29T18:49:42;3.70;99.90
46766;DHT22;32527;51.986;5.842;2023-01-29T18:52:08;3.40;99.90
46766;DHT22;32527;51.986;5.842;2023-01-29T18:54:34;3.50;99.90
46766;DHT22;32527;51.986;5.842;2023-01-29T18:57:00;3.40;99.90
46766;DHT22;32527;51.986;5.842;2023-01-29T18:59:25;3.70;99.90
46766;DHT22;32527;51.986;5.842;2023-01-29T19:01:51;3.40;99.90
46766;DHT22;32527;51.986;5.842;2023-01-29T19:04:17;3.60;99.90
46766;DHT22;32527;51.986;5.842;2023-01-29T19:06:42;3.60;99.90
46766;DHT22;32527;51.986;5.842;2023-01-29T19:09:08;3.60;99.90
46766;DHT22;32527;51.986;5.842;2023-01-29T19:11:34;3.20;99.90
46766;DHT22;32527;51.986;5.842;2023-01-29T19:13:59;3.50;99.90
46766;DHT22;32527;51.986;5.842;2023-01-29T19:16:25;3.90;99.90
46766;DHT22;32527;51.986;5.842;2023-01-29T19:18:52;3.60;99.90
46766;DHT22;32527;51.986;5.842;2023-01-29T19:23:46;3.70;99.90
46766;DHT22;32527;51.986;5.842;2023-01-29T19:26:12;3.60;99.90
46766;DHT22;32527;51.986;5.842;2023-01-29T19:31:05;3.90;99.90
46766;DHT22;32527;51.986;5.842;2023-01-29T19:33:30;3.70;99.90
46766;DHT22;32527;51.986;5.842;2023-01-29T19:35:57;3.70;99.90
46766;DHT22;32527;51.986;5.842;2023-01-29T19:38:24;3.50;99.90
46766;DHT22;32527;51.986;5.842;2023-01-29T19:40:50;3.60;99.90
46766;DHT22;32527;51.986;5.842;2023-01-29T19:43:16;3.70;99.90
46766;DHT22;32527;51.986;5.842;2023-01-29T19:45:43;3.60;99.90
46766;DHT22;32527;51.986;5.842;2023-01-29T19:48:13;3.70;99.90
46766;DHT22;32527;51.986;5.842;2023-01-29T19:50:40;4.00;99.90
46766;DHT22;32527;51.986;5.842;2023-01-29T19:55:32;3.70;99.90
46766;DHT22;32527;51.986;5.842;2023-01-29T19:57:58;3.70;99.90
46766;DHT22;32527;51.986;5.842;2023-01-29T20:00:24;3.60;99.90
46766;DHT22;32527;51.986;5.842;2023-01-29T20:02:50;4.10;99.90
46766;DHT22;32527;51.986;5.842;2023-01-29T20:05:15;3.70;99.90
46766;DHT22;32527;51.986;5.842;2023-01-29T20:07:42;3.80;99.90
46766;DHT22;32527;51.986;5.842;2023-01-29T20:10:10;4.10;99.90
46766;DHT22;32527;51.986;5.842;2023-01-29T20:12:42;3.70;99.90
46766;DHT22;32527;51.986;5.842;2023-01-29T20:15:09;3.90;99.90
46766;DHT22;32527;51.986;5.842;2023-01-29T20:17:35;4.20;99.90
46766;DHT22;32527;51.986;5.842;2023-01-29T20:20:01;3.70;99.90
46766;DHT22;32527;51.986;5.842;2023-01-29T20:24:54;3.70;99.90
46766;DHT22;32527;51.986;5.842;2023-01-29T20:27:20;4.20;99.90
46766;DHT22;32527;51.986;5.842;2023-01-29T20:29:46;4.10;99.90
46766;DHT22;32527;51.986;5.842;2023-01-29T20:32:12;4.00;99.90
46766;DHT22;32527;51.986;5.842;2023-01-29T20:34:39;3.70;99.90
46766;DHT22;32527;51.986;5.842;2023-01-29T20:39:31;3.80;99.90
46766;DHT22;32527;51.986;5.842;2023-01-29T20:41:57;3.80;99.90
46766;DHT22;32527;51.986;5.842;2023-01-29T20:44:23;3.80;99.90
46766;DHT22;32527;51.986;5.842;2023-01-29T20:46:49;3.70;99.90
46766;DHT22;32527;51.986;5.842;2023-01-29T20:49:15;4.10;99.90
46766;DHT22;32527;51.986;5.842;2023-01-29T20:51:43;3.90;99.90
46766;DHT22;32527;51.986;5.842;2023-01-29T20:54:09;4.30;99.90
46766;DHT22;32527;51.986;5.842;2023-01-29T20:59:03;4.40;99.90
46766;DHT22;32527;51.986;5.842;2023-01-29T21:03:55;4.40;99.90
46766;DHT22;32527;51.986;5.842;2023-01-29T21:06:20;4.10;99.90
46766;DHT22;32527;51.986;5.842;2023-01-29T21:08:46;3.70;99.90
46766;DHT22;32527;51.986;5.842;2023-01-29T21:13:38;4.40;99.90
46766;DHT22;32527;51.986;5.842;2023-01-29T21:16:04;4.00;99.90
46766;DHT22;32527;51.986;5.842;2023-01-29T21:18:30;4.10;99.90
46766;DHT22;32527;51.986;5.842;2023-01-29T21:20:56;3.80;99.90
46766;DHT22;32527;51.986;5.842;2023-01-29T21:23:22;3.90;99.90
46766;DHT22;32527;51.986;5.842;2023-01-29T21:25:48;4.20;99.90
46766;DHT22;32527;51.986;5.842;2023-01-29T21:28:14;4.30;99.90
46766;DHT22;32527;51.986;5.842;2023-01-29T21:30:40;4.20;99.90
46766;DHT22;32527;51.986;5.842;2023-01-29T21:33:05;4.00;99.90
46766;DHT22;32527;51.986;5.842;2023-01-29T21:35:31;4.30;99.90
46766;DHT22;32527;51.986;5.842;2023-01-29T21:37:57;4.20;99.90
46766;DHT22;32527;51.986;5.842;2023-01-29T21:40:23;4.00;99.90
46766;DHT22;32527;51.986;5.842;2023-01-29T21:42:54;4.30;99.90
46766;DHT22;32527;51.986;5.842;2023-01-29T21:45:38;4.40;99.90
46766;DHT22;32527;51.986;5.842;2023-01-29T21:48:04;4.10;99.90
46766;DHT22;32527;51.986;5.842;2023-01-29T21:50:30;4.30;99.90
46766;DHT22;32527;51.986;5.842;2023-01-29T21:52:56;4.30;99.90
46766;DHT22;32527;51.986;5.842;2023-01-29T21:55:22;4.10;99.90
46766;DHT22;32527;51.986;5.842;2023-01-29T21:57:48;4.40;99.90
46766;DHT22;32527;51.986;5.842;2023-01-29T22:00:14;4.50;99.90
46766;DHT22;32527;51.986;5.842;2023-01-29T22:02:40;4.40;99.90
46766;DHT22;32527;51.986;5.842;2023-01-29T22:05:07;4.20;99.90
46766;DHT22;32527;51.986;5.842;2023-01-29T22:07:33;4.40;99.90
46766;DHT22;32527;51.986;5.842;2023-01-29T22:14:51;4.40;99.90
46766;DHT22;32527;51.986;5.842;2023-01-29T22:17:17;4.50;99.90
46766;DHT22;32527;51.986;5.842;2023-01-29T22:19:45;4.40;99.90